Time;durP1;ratioP1;P1;durP2;ratioP2;P2;SDS_P1;SDS_P2;PMS_P1;PMS_P2;Temp;Humidity;BMP_temperature;BMP_pressure;BME280_temperature;BME280_humidity;BME280_pressure;Samples;Min_cycle;Max_cycle;Signal;HPM_P1;HPM_P2
2021/05/21 00:01:04;;;;;;;3.22;0.90;;;13.40;99.90;;;14.50;57.87;99909.28;4962392;28;20062;-84
2021/05/21 00:03:30;;;;;;;1.08;0.88;;;13.40;99.90;;;14.56;57.53;99906.84;4961043;28;20391;-82
2021/05/21 00:05:56;;;;;;;3.50;0.90;;;13.40;99.90;;;14.50;57.37;99905.66;4960869;29;20029;-83
2021/05/21 00:08:22;;;;;;;2.40;1.00;;;13.40;99.90;;;14.59;57.27;99895.59;4964954;28;20023;-84
2021/05/21 00:10:48;;;;;;;2.75;0.88;;;13.40;99.90;;;14.43;57.92;99889.59;4964797;29;20027;-80
2021/05/21 00:13:14;;;;;;;1.25;0.80;;;13.40;99.90;;;14.42;58.25;99887.97;4965340;29;20023;-82
2021/05/21 00:15:39;;;;;;;2.38;0.70;;;13.30;99.90;;;14.44;57.96;99887.59;4966491;28;20031;-83
2021/05/21 00:18:05;;;;;;;1.80;0.80;;;13.30;99.90;;;14.34;58.51;99880.78;4967415;28;20031;-81
2021/05/21 00:20:31;;;;;;;2.90;0.77;;;13.20;99.90;;;14.26;58.39;99870.69;4962571;29;20043;-82
2021/05/21 00:22:57;;;;;;;1.98;1.00;;;13.10;99.90;;;14.41;58.07;99868.75;4962855;28;20070;-85
2021/05/21 00:25:23;;;;;;;4.75;1.13;;;13.10;99.90;;;14.20;58.47;99864.69;4958795;29;20035;-84
2021/05/21 00:27:48;;;;;;;1.23;0.88;;;13.10;99.90;;;14.05;59.42;99860.28;4960919;28;20132;-83
2021/05/21 00:30:15;;;;;;;1.42;0.90;;;13.00;99.90;;;14.08;58.91;99853.88;4959492;28;20126;-85
2021/05/21 00:32:41;;;;;;;4.68;0.80;;;13.00;99.90;;;14.04;59.33;99853.06;4961464;29;20028;-85
2021/05/21 00:35:08;;;;;;;2.45;0.90;;;13.00;99.90;;;14.16;59.32;99852.66;4960978;28;20023;-85
2021/05/21 00:37:33;;;;;;;0.98;0.55;;;13.00;99.90;;;14.09;59.39;99849.06;4961114;28;20027;-81
2021/05/21 00:39:59;;;;;;;3.45;0.98;;;12.90;99.90;;;14.02;59.09;99840.63;4958290;28;20126;-81
2021/05/21 00:42:25;;;;;;;1.35;0.70;;;13.00;99.90;;;14.06;59.06;99833.78;4958603;29;20358;-82
2021/05/21 00:44:58;;;;;;;2.22;0.85;;;12.90;99.90;;;14.05;59.27;99832.22;4960745;28;20491;-81
2021/05/21 00:47:26;;;;;;;1.75;0.90;;;12.90;99.90;;;14.10;59.36;99831.78;4960923;29;20027;-81
2021/05/21 00:49:52;;;;;;;1.77;0.75;;;12.90;99.90;;;14.16;59.52;99835.00;4960167;28;20039;-82
2021/05/21 00:52:22;;;;;;;2.33;0.90;;;12.90;99.90;;;13.93;59.95;99820.59;4961235;29;20055;-80
2021/05/21 00:54:50;;;;;;;2.13;0.65;;;12.80;99.90;;;13.94;59.74;99817.34;4962345;28;20151;-81
2021/05/21 00:57:16;;;;;;;1.52;0.93;;;12.60;99.90;;;13.73;60.59;99815.34;4962616;28;20062;-82
2021/05/21 00:59:42;;;;;;;1.73;0.70;;;12.60;99.90;;;13.73;60.88;99811.75;4962514;28;20099;-80
2021/05/21 01:02:09;;;;;;;1.17;0.70;;;12.60;99.90;;;13.78;60.97;99805.72;4963172;29;20035;-81
2021/05/21 01:04:38;;;;;;;3.83;0.90;;;12.60;99.90;;;13.65;61.45;99802.50;4965672;29;20126;-81
2021/05/21 01:07:07;;;;;;;2.13;0.85;;;12.50;99.90;;;13.63;61.27;99788.09;4967824;28;20135;-82
2021/05/21 01:09:33;;;;;;;0.85;0.70;;;12.40;99.90;;;13.55;61.35;99794.09;4956622;28;20129;-81
2021/05/21 01:12:01;;;;;;;2.58;0.88;;;12.40;99.90;;;13.43;62.05;99786.84;4956550;29;20027;-80
2021/05/21 01:14:28;;;;;;;1.00;0.88;;;12.40;99.90;;;13.42;62.41;99771.22;4956610;29;20059;-81
2021/05/21 01:16:54;;;;;;;3.65;1.30;;;12.30;99.90;;;13.53;62.11;99760.81;4956259;29;20031;-81
2021/05/21 01:19:20;;;;;;;1.55;0.70;;;12.40;99.90;;;13.43;62.64;99764.41;4956701;28;20121;-81
2021/05/21 01:21:47;;;;;;;5.03;1.20;;;12.30;99.90;;;13.47;62.62;99759.63;4958294;29;20478;-79
2021/05/21 01:24:13;;;;;;;1.60;0.85;;;12.30;99.90;;;13.48;62.54;99760.41;4957934;28;20031;-81
2021/05/21 01:26:39;;;;;;;2.53;0.70;;;12.30;99.90;;;13.45;62.35;99758.41;4957461;28;20131;-81
2021/05/21 01:29:06;;;;;;;5.05;1.30;;;12.30;99.90;;;13.49;62.62;99753.59;4956606;28;20031;-80
2021/05/21 01:31:36;;;;;;;2.22;0.63;;;12.30;99.90;;;13.40;62.59;99759.59;4943720;29;20024;-79
2021/05/21 01:34:02;;;;;;;2.05;0.75;;;12.30;99.90;;;13.43;62.87;99750.38;4936995;29;20443;-81
2021/05/21 01:36:28;;;;;;;1.70;0.65;;;12.30;99.90;;;13.35;63.28;99742.38;4937294;29;20031;-81
2021/05/21 01:39:09;;;;;;;1.20;0.70;;;12.20;99.90;;;13.41;63.13;99735.16;4937653;29;20043;-81
2021/05/21 01:41:41;;;;;;;2.83;0.77;;;12.20;99.90;;;13.50;62.66;99732.75;4936599;29;20040;-82
2021/05/21 01:44:13;;;;;;;4.45;1.02;;;12.30;99.90;;;13.42;62.81;99731.16;4938523;29;20480;-81
2021/05/21 01:46:39;;;;;;;1.95;0.90;;;12.20;99.90;;;13.44;62.73;99731.56;4936214;29;20062;-80
2021/05/21 01:49:06;;;;;;;6.47;0.80;;;12.30;99.90;;;13.43;62.71;99716.72;4937430;29;20106;-81
2021/05/21 01:51:49;;;;;;;4.10;1.10;;;12.30;99.90;;;13.39;62.61;99718.72;4937775;29;20523;-83
2021/05/21 01:54:17;;;;;;;2.40;0.70;;;12.30;99.90;;;13.48;62.85;99716.34;4938366;29;20118;-82
2021/05/21 01:56:47;;;;;;;3.05;0.95;;;12.30;99.90;;;13.47;62.60;99709.13;4937882;29;20039;-79
2021/05/21 01:59:13;;;;;;;2.80;0.80;;;12.30;99.90;;;13.48;62.61;99704.31;4937474;29;20055;-81
2021/05/21 02:01:40;;;;;;;2.45;1.00;;;12.40;99.90;;;13.49;62.73;99714.31;4939163;29;20028;-82
2021/05/21 02:04:06;;;;;;;5.65;0.90;;;12.40;99.90;;;13.43;62.80;99704.69;4940061;29;20031;-80
2021/05/21 02:06:40;;;;;;;4.28;0.75;;;12.40;99.90;;;13.47;62.69;99699.91;4942105;29;20031;-80
2021/05/21 02:09:10;;;;;;;2.53;0.73;;;12.30;99.90;;;13.45;63.06;99699.50;4946438;29;20075;-82
2021/05/21 02:11:38;;;;;;;1.23;0.80;;;12.30;99.90;;;13.39;63.26;99701.13;4962126;28;20110;-80
2021/05/21 02:14:05;;;;;;;2.78;0.77;;;12.30;99.90;;;13.38;63.26;99700.31;4961436;29;20118;-81
2021/05/21 02:16:31;;;;;;;3.70;0.93;;;12.30;99.90;;;13.39;63.49;99687.09;4961360;29;20083;-80
2021/05/21 02:18:57;;;;;;;7.45;0.98;;;12.30;99.90;;;13.33;63.71;99694.28;4961558;28;20126;-82
2021/05/21 02:21:31;;;;;;;2.00;0.98;;;12.30;99.90;;;13.44;63.24;99681.06;4962113;28;20055;-79
2021/05/21 02:24:02;;;;;;;1.83;0.80;;;12.30;99.90;;;13.38;63.57;99672.25;4962404;29;20031;-82
2021/05/21 02:26:28;;;;;;;3.67;0.90;;;12.30;99.90;;;13.35;63.16;99669.44;4963942;28;20039;-79
2021/05/21 02:28:54;;;;;;;1.80;0.90;;;12.30;99.90;;;13.40;63.21;99667.03;4964035;28;20086;-81
2021/05/21 02:31:20;;;;;;;2.97;1.10;;;12.20;99.90;;;13.36;63.40;99660.63;4963984;29;20368;-80
2021/05/21 02:33:46;;;;;;;2.97;0.60;;;12.20;99.90;;;13.32;63.58;99659.03;4965094;28;20063;-81
2021/05/21 02:36:12;;;;;;;0.77;0.63;;;12.30;99.90;;;13.31;63.60;99660.22;4965034;29;20027;-80
2021/05/21 02:38:38;;;;;;;3.10;0.90;;;12.20;99.90;;;13.39;63.67;99642.22;4963843;28;20031;-82
2021/05/21 02:41:04;;;;;;;1.45;0.85;;;12.20;99.90;;;13.36;63.64;99643.78;4965331;28;20124;-82
2021/05/21 02:43:29;;;;;;;5.72;0.90;;;12.10;99.90;;;13.27;63.70;99637.00;4965013;29;20042;-81
2021/05/21 02:45:55;;;;;;;0.88;0.70;;;12.10;99.90;;;13.21;63.96;99642.19;4964756;28;20024;-82
2021/05/21 02:48:21;;;;;;;4.25;0.80;;;12.10;99.90;;;13.23;64.01;99636.22;4964294;28;20030;-81
2021/05/21 02:50:47;;;;;;;3.60;0.80;;;12.00;99.90;;;13.25;64.08;99636.59;4968126;29;20254;-82
2021/05/21 02:53:13;;;;;;;2.22;0.80;;;12.10;99.90;;;13.17;64.49;99636.59;4968769;29;20023;-82
2021/05/21 02:55:39;;;;;;;1.55;0.85;;;12.00;99.90;;;13.26;63.99;99638.97;4971508;29;20023;-83
2021/05/21 02:58:05;;;;;;;2.08;0.75;;;12.10;99.90;;;13.19;63.87;99628.59;4972434;28;20035;-82
2021/05/21 03:00:31;;;;;;;1.15;0.88;;;12.10;99.90;;;13.19;64.24;99633.41;4967026;28;20039;-83
2021/05/21 03:02:57;;;;;;;1.77;0.60;;;12.10;99.90;;;13.36;63.28;99631.78;4980672;28;20062;-82
2021/05/21 03:05:22;;;;;;;3.75;0.90;;;12.10;99.90;;;13.25;63.66;99620.59;4965331;29;20046;-82
2021/05/21 03:08:01;;;;;;;2.67;0.80;;;12.10;99.90;;;13.27;63.74;99637.00;4973867;28;20094;-79
2021/05/21 03:10:28;;;;;;;2.13;0.68;;;12.10;99.90;;;13.39;63.48;99623.38;4965572;28;20035;-78
2021/05/21 03:12:56;;;;;;;3.72;1.10;;;12.10;99.90;;;13.38;63.48;99615.38;4980685;28;20038;-80
2021/05/21 03:15:26;;;;;;;2.97;0.95;;;12.10;99.90;;;13.30;63.68;99617.38;4982268;28;20031;-79
2021/05/21 03:17:52;;;;;;;1.40;0.70;;;12.10;99.90;;;13.17;64.19;99608.56;4982093;28;20011;-79
2021/05/21 03:20:20;;;;;;;1.13;0.68;;;12.10;99.90;;;13.31;63.57;99615.38;4981386;28;20031;-79
2021/05/21 03:22:46;;;;;;;3.38;0.63;;;12.10;99.90;;;13.23;64.01;99613.78;4981985;28;20023;-79
2021/05/21 03:25:13;;;;;;;3.35;1.13;;;12.10;99.90;;;13.24;64.13;99610.56;4981509;28;20024;-81
2021/05/21 03:27:39;;;;;;;2.08;0.60;;;12.10;99.90;;;13.19;64.16;99608.97;4979982;28;20031;-84
2021/05/21 03:30:11;;;;;;;3.75;0.70;;;12.10;99.90;;;13.31;63.89;99598.53;4978896;28;20039;-85
2021/05/21 03:32:39;;;;;;;3.55;0.77;;;12.10;99.90;;;13.25;63.92;99595.34;4978176;28;20491;-83
2021/05/21 03:35:08;;;;;;;2.35;1.00;;;12.10;99.90;;;13.25;63.92;99592.53;4977701;28;20151;-82
2021/05/21 03:37:35;;;;;;;2.45;0.88;;;12.10;99.90;;;13.18;64.48;99584.94;4978307;29;20039;-84
2021/05/21 03:40:01;;;;;;;3.08;1.10;;;12.10;99.90;;;13.09;64.65;99584.53;4979847;28;20027;-82
2021/05/21 03:42:27;;;;;;;2.20;0.70;;;12.00;99.90;;;13.22;64.18;99581.31;4979678;28;20128;-81
2021/05/21 03:44:53;;;;;;;1.10;0.52;;;12.10;99.90;;;13.26;64.39;99566.09;4979760;28;20027;-79
2021/05/21 03:47:22;;;;;;;5.38;1.48;;;12.10;99.90;;;13.33;63.81;99570.88;4979516;28;20040;-81
2021/05/21 03:49:52;;;;;;;1.45;0.60;;;12.10;99.90;;;13.35;63.80;99566.50;4979615;28;20040;-80
2021/05/21 03:52:18;;;;;;;1.30;0.75;;;12.20;99.90;;;13.44;63.64;99574.50;4980476;28;20050;-82
2021/05/21 03:54:44;;;;;;;5.43;0.80;;;12.30;99.90;;;13.41;63.87;99580.91;4980338;28;20039;-84
2021/05/21 03:57:10;;;;;;;3.10;0.80;;;12.20;99.90;;;13.26;64.24;99580.09;4972624;28;20036;-83
2021/05/21 03:59:36;;;;;;;3.47;1.02;;;12.20;99.90;;;13.36;63.88;99572.88;4956334;28;20138;-81
2021/05/21 04:02:02;;;;;;;0.95;0.63;;;12.20;99.90;;;13.34;64.36;99575.31;4951862;28;20031;-81
2021/05/21 04:04:28;;;;;;;1.25;0.50;;;12.20;99.90;;;13.39;63.96;99569.31;4941411;29;20375;-82
2021/05/21 04:06:54;;;;;;;1.23;0.60;;;12.20;99.90;;;13.36;64.04;99575.69;4944174;29;20118;-80
2021/05/21 04:09:20;;;;;;;3.33;1.02;;;12.20;99.90;;;13.46;64.31;99572.06;4942725;29;20051;-80
2021/05/21 04:11:46;;;;;;;3.72;0.80;;;12.30;99.90;;;13.42;64.21;99566.47;4943236;29;20499;-82
2021/05/21 04:14:11;;;;;;;6.45;0.57;;;12.20;99.90;;;13.53;63.95;99558.84;4941983;29;20019;-84
2021/05/21 04:16:38;;;;;;;5.65;1.08;;;12.30;99.90;;;13.59;63.42;99565.63;4940982;29;20499;-81
2021/05/21 04:19:04;;;;;;;1.65;0.70;;;12.30;99.90;;;13.57;63.65;99561.63;4943448;29;20027;-81
2021/05/21 04:21:30;;;;;;;1.63;0.82;;;12.40;99.90;;;13.63;63.62;99560.03;4943251;29;20057;-83
2021/05/21 04:23:57;;;;;;;1.67;0.82;;;12.40;99.90;;;13.67;63.62;99555.22;4940723;29;20080;-81
2021/05/21 04:26:22;;;;;;;4.43;0.93;;;12.50;99.90;;;13.68;63.37;99557.59;4940187;29;20040;-82
2021/05/21 04:28:49;;;;;;;3.20;0.90;;;12.50;99.90;;;13.90;62.68;99555.50;4941131;29;20050;-81
2021/05/21 04:31:17;;;;;;;3.28;0.75;;;12.70;99.90;;;14.03;62.56;99553.06;4943353;29;20043;-81
2021/05/21 04:33:44;;;;;;;2.17;0.85;;;12.80;99.90;;;14.07;62.77;99551.84;4941432;29;20024;-80
2021/05/21 04:36:10;;;;;;;2.10;1.05;;;12.80;99.90;;;14.09;62.29;99551.44;4941089;29;20095;-81
2021/05/21 04:38:36;;;;;;;3.30;0.85;;;12.90;99.90;;;13.99;62.58;99552.28;4940749;29;20400;-81
2021/05/21 04:41:04;;;;;;;2.50;0.63;;;12.80;99.90;;;13.91;63.03;99545.09;4942178;29;20027;-83
2021/05/21 04:43:30;;;;;;;1.02;0.60;;;12.80;99.90;;;13.99;62.93;99543.88;4939711;29;20070;-84
2021/05/21 04:45:57;;;;;;;3.38;1.30;;;12.80;99.90;;;13.89;62.90;99542.69;4938781;29;20039;-84
2021/05/21 04:48:24;;;;;;;2.33;1.05;;;12.80;99.90;;;13.91;63.25;99539.47;4939888;29;20086;-82
2021/05/21 04:50:50;;;;;;;1.27;0.50;;;12.90;99.90;;;14.17;62.18;99539.75;4938188;29;20036;-85
2021/05/21 04:53:17;;;;;;;3.83;0.88;;;12.90;99.90;;;14.39;61.92;99539.66;4939218;29;20342;-83
2021/05/21 04:55:45;;;;;;;2.42;0.75;;;13.00;99.90;;;14.47;61.79;99533.59;4939291;29;20031;-84
2021/05/21 04:58:12;;;;;;;3.63;0.95;;;13.20;99.90;;;14.73;60.81;99535.03;4937650;29;20055;-84
2021/05/21 05:00:39;;;;;;;2.05;0.75;;;13.40;99.90;;;15.08;59.54;99529.13;4939029;29;20031;-83
2021/05/21 05:03:12;;;;;;;2.25;0.90;;;13.70;99.90;;;15.12;59.59;99529.09;4939613;29;20130;-82
2021/05/21 05:05:38;;;;;;;1.83;0.70;;;13.70;99.90;;;14.69;61.12;99523.00;4939857;29;20063;-83
2021/05/21 05:08:05;;;;;;;1.33;0.93;;;13.60;99.90;;;14.69;60.59;99521.00;4939710;29;20133;-81
2021/05/21 05:10:31;;;;;;;4.97;1.00;;;13.60;99.90;;;14.93;59.83;99526.84;4955636;29;20031;-83
2021/05/21 05:12:57;;;;;;;3.15;0.80;;;13.70;99.90;;;15.23;59.28;99524.94;4958145;29;20027;-85
2021/05/21 05:15:23;;;;;;;2.00;0.88;;;13.90;99.90;;;15.44;59.09;99523.94;4958266;29;20028;-84
2021/05/21 05:17:51;;;;;;;2.03;0.60;;;14.10;99.90;;;15.57;58.40;99524.25;4958107;28;20051;-85
2021/05/21 05:20:21;;;;;;;2.58;1.05;;;14.20;99.90;;;15.48;58.61;99524.72;4957726;28;20031;-86
2021/05/21 05:22:49;;;;;;;5.13;0.93;;;14.30;99.90;;;15.39;58.36;99515.94;4959750;28;20427;-84
2021/05/21 05:25:15;;;;;;;0.93;0.65;;;14.10;99.90;;;15.42;58.92;99511.50;4959403;28;20027;-83
2021/05/21 05:27:41;;;;;;;5.18;0.85;;;14.10;99.90;;;15.62;58.26;99515.31;4960074;29;20096;-83
2021/05/21 05:30:09;;;;;;;4.20;0.80;;;14.30;99.90;;;15.87;57.58;99509.41;4958253;28;20028;-84
2021/05/21 05:32:35;;;;;;;3.67;1.38;;;14.50;99.90;;;16.03;56.38;99506.78;4953872;28;20067;-83
2021/05/21 05:35:01;;;;;;;4.30;1.00;;;14.70;99.90;;;15.96;57.05;99502.03;4941392;29;20020;-87
2021/05/21 05:37:27;;;;;;;2.92;1.27;;;14.90;99.90;;;16.22;56.15;99503.28;4945180;29;20491;-84
2021/05/21 05:39:53;;;;;;;1.33;0.73;;;14.90;99.90;;;16.35;55.34;99498.69;4957708;28;20016;-83
2021/05/21 05:42:18;;;;;;;4.18;0.85;;;15.00;99.90;;;16.21;55.69;99507.34;4946892;28;20373;-82
2021/05/21 05:44:44;;;;;;;3.88;0.95;;;15.10;99.90;;;16.19;56.10;99499.31;4939694;29;20047;-83
2021/05/21 05:47:10;;;;;;;2.88;0.90;;;15.10;99.90;;;16.78;55.02;99501.69;4939445;29;20039;-84
2021/05/21 05:49:36;;;;;;;2.65;1.05;;;15.30;99.90;;;17.02;53.84;99508.09;4939578;29;20059;-85
2021/05/21 05:52:02;;;;;;;3.35;0.90;;;15.60;99.90;;;16.61;54.92;99500.72;4951658;29;20027;-86
2021/05/21 05:54:28;;;;;;;3.05;1.25;;;15.50;99.90;;;16.75;54.43;99494.06;4939989;29;20530;-83
2021/05/21 05:56:55;;;;;;;1.98;0.80;;;15.50;99.90;;;16.74;55.54;99489.66;4939230;29;20036;-85
2021/05/21 05:59:26;;;;;;;7.45;1.20;;;15.40;99.90;;;16.22;56.00;99492.03;4939698;29;20063;-82
2021/05/21 06:01:52;;;;;;;3.95;0.98;;;15.20;99.90;;;16.12;56.66;99485.31;4939139;29;20067;-84
2021/05/21 06:04:18;;;;;;;1.85;0.88;;;15.00;99.90;;;16.20;56.87;99489.66;4940273;29;20032;-84
2021/05/21 06:06:43;;;;;;;2.65;1.00;;;15.00;99.90;;;16.15;57.03;99483.69;4939739;29;20078;-84
2021/05/21 06:09:09;;;;;;;2.20;1.10;;;14.90;99.90;;;16.17;56.57;99475.59;4943631;29;20041;-83
2021/05/21 06:11:36;;;;;;;2.22;1.10;;;14.90;99.90;;;16.23;56.66;99473.91;4958576;28;20509;-83
2021/05/21 06:14:06;;;;;;;2.90;0.77;;;14.90;99.90;;;16.57;55.65;99482.25;4959028;28;20031;-85
2021/05/21 06:16:32;;;;;;;3.10;0.90;;;15.00;99.90;;;16.18;56.18;99472.34;4959002;28;20118;-83
2021/05/21 06:18:59;;;;;;;2.97;0.80;;;14.90;99.90;;;15.91;56.98;99465.91;4958672;28;20032;-83
2021/05/21 06:21:25;;;;;;;4.78;1.08;;;14.80;99.90;;;15.89;57.66;99465.53;4958197;29;20035;-84
2021/05/21 06:23:52;;;;;;;4.63;1.00;;;14.70;99.90;;;15.72;58.25;99466.56;4959325;28;20031;-82
2021/05/21 06:28:53;;;;;;;3.28;1.17;;;14.60;99.90;;;15.92;58.29;99467.50;4961570;28;20035;-84
2021/05/21 06:31:21;;;;;;;3.30;1.30;;;14.60;99.90;;;16.81;55.99;99464.16;4961021;28;20031;-85
2021/05/21 06:33:48;;;;;;;2.42;0.85;;;15.20;99.90;;;17.46;53.30;99462.56;4961114;28;20077;-82
2021/05/21 06:36:15;;;;;;;5.93;1.33;;;15.70;99.90;;;17.40;53.18;99464.31;4958865;28;20035;-84
2021/05/21 06:38:41;;;;;;;3.88;1.10;;;16.00;99.90;;;17.64;52.61;99463.03;4959513;28;20082;-86
2021/05/21 06:41:09;;;;;;;5.53;1.00;;;16.00;99.90;;;16.90;54.11;99467.22;4958709;29;20038;-85
2021/05/21 06:43:36;;;;;;;3.60;1.00;;;15.80;99.90;;;16.60;55.40;99458.88;4959614;28;20035;-84
2021/05/21 06:46:04;;;;;;;4.10;1.00;;;15.50;99.90;;;17.23;53.99;99471.88;4959159;28;20476;-84
2021/05/21 06:48:33;;;;;;;5.72;1.25;;;15.70;99.90;;;17.53;54.07;99462.41;4971315;28;20095;-80
2021/05/21 06:51:03;;;;;;;4.50;1.30;;;16.00;99.90;;;17.77;51.59;99457.53;4974348;28;20074;-81
2021/05/21 06:53:30;;;;;;;5.93;1.48;;;16.40;99.90;;;18.30;50.83;99459.97;4975878;28;20031;-80
2021/05/21 06:55:57;;;;;;;4.25;1.20;;;16.90;99.90;;;17.30;51.84;99451.19;4975668;28;20027;-81
2021/05/21 06:58:25;;;;;;;3.15;1.05;;;16.50;99.90;;;16.34;54.80;99452.03;4972429;28;20023;-83
2021/05/21 07:00:57;;;;;;;4.97;1.02;;;15.80;99.90;;;16.17;56.27;99450.25;4962335;28;20038;-83
2021/05/21 07:03:27;;;;;;;6.55;1.60;;;15.30;99.90;;;16.12;56.88;99468.41;4963114;29;20031;-82
2021/05/21 07:05:57;;;;;;;7.65;1.58;;;15.10;99.90;;;16.51;55.68;99461.41;4961889;29;20118;-81
2021/05/21 07:08:24;;;;;;;6.18;1.52;;;15.20;99.90;;;17.40;52.99;99456.59;4960696;28;20062;-84
2021/05/21 07:10:50;;;;;;;6.32;1.45;;;15.80;99.90;;;18.13;52.33;99451.91;4961153;28;20085;-85
2021/05/21 07:13:18;;;;;;;7.63;1.70;;;16.50;99.90;;;18.37;51.15;99454.16;4962232;28;20114;-83
2021/05/21 07:15:45;;;;;;;4.97;1.52;;;16.90;99.90;;;18.36;50.90;99446.91;4961033;29;20526;-85
2021/05/21 07:18:12;;;;;;;4.57;0.90;;;16.90;99.90;;;18.13;51.08;99451.91;4962505;28;20382;-81
2021/05/21 07:20:44;;;;;;;4.65;1.73;;;16.60;99.90;;;17.80;52.27;99446.16;4962451;29;20169;-83
2021/05/21 07:23:09;;;;;;;5.68;1.20;;;16.40;99.90;;;17.29;52.37;99450.38;4963873;28;20031;-83
2021/05/21 07:25:35;;;;;;;5.90;1.25;;;16.00;99.90;;;16.96;53.84;99444.97;4962043;29;20042;-82
2021/05/21 07:28:01;;;;;;;4.47;1.20;;;15.80;99.90;;;17.02;53.20;99460.97;4960601;29;20037;-83
2021/05/21 07:30:27;;;;;;;7.90;1.77;;;15.80;99.90;;;16.50;54.08;99451.38;4962121;28;20046;-82
2021/05/21 07:32:53;;;;;;;3.72;1.05;;;15.40;99.90;;;16.41;54.53;99451.88;4958628;29;20019;-83
2021/05/21 07:35:19;;;;;;;5.13;1.20;;;15.20;99.90;;;16.31;55.41;99453.66;4949273;29;20083;-84
2021/05/21 07:37:46;;;;;;;3.55;1.02;;;15.10;99.90;;;16.79;54.77;99446.88;4940712;29;20381;-84
2021/05/21 07:40:13;;;;;;;4.97;1.48;;;15.40;99.90;;;17.25;53.36;99444.00;4940872;29;20035;-84
2021/05/21 07:42:39;;;;;;;4.82;1.15;;;15.80;99.90;;;18.04;51.67;99444.03;4943651;29;20027;-86
2021/05/21 07:45:09;;;;;;;6.97;1.75;;;16.50;99.90;;;17.38;51.57;99447.78;4943662;29;20036;-86
2021/05/21 07:47:36;;;;;;;7.40;1.60;;;16.40;99.90;;;17.45;51.47;99427.09;4944798;29;20546;-85
2021/05/21 07:50:05;;;;;;;8.27;2.13;;;16.20;99.90;;;17.35;51.25;99425.28;4942302;29;20042;-85
2021/05/21 07:52:31;;;;;;;10.10;1.88;;;16.20;99.90;;;17.66;52.12;99425.91;4952262;29;20020;-81
2021/05/21 07:54:59;;;;;;;4.80;1.20;;;16.40;99.90;;;18.36;49.39;99426.34;4959641;28;20036;-82
2021/05/21 07:57:25;;;;;;;6.20;1.27;;;16.90;99.90;;;18.44;49.30;99422.88;4943236;29;20046;-83
2021/05/21 07:59:51;;;;;;;5.85;1.10;;;17.00;99.90;;;18.52;49.06;99437.69;4941368;29;20031;-86
2021/05/21 08:02:17;;;;;;;6.97;1.90;;;17.10;99.90;;;17.98;50.55;99419.56;4942051;29;20050;-85
2021/05/21 08:04:43;;;;;;;7.10;1.30;;;16.70;99.90;;;17.92;50.29;99424.13;4943102;29;20396;-87
2021/05/21 08:07:09;;;;;;;5.63;1.77;;;16.60;99.90;;;17.87;49.12;99431.88;4942233;29;20027;-85
2021/05/21 08:09:38;;;;;;;8.60;1.50;;;16.40;99.90;;;18.40;47.44;99413.69;4952145;29;20035;-84
2021/05/21 08:12:06;;;;;;;7.93;1.92;;;16.90;96.80;;;19.63;45.47;99422.19;4966380;29;20031;-83
2021/05/21 08:14:33;;;;;;;7.63;1.80;;;17.80;93.70;;;21.07;44.39;99422.44;4961763;29;20027;-84
2021/05/21 08:16:58;;;;;;;8.27;1.70;;;18.90;92.50;;;21.52;41.38;99414.34;4961951;28;20027;-86
2021/05/21 08:19:24;;;;;;;7.57;2.00;;;19.50;77.60;;;20.52;42.63;99416.19;4960140;28;20482;-85
2021/05/21 08:21:52;;;;;;;8.85;1.83;;;19.00;75.60;;;18.99;45.55;99434.47;4961084;29;20122;-84
2021/05/21 08:24:18;;;;;;;10.48;1.75;;;18.10;79.40;;;18.09;46.61;99429.38;4959959;28;20460;-83
2021/05/21 08:26:44;;;;;;;7.68;1.80;;;17.30;81.30;;;18.18;45.66;99418.25;4961347;28;20045;-83
2021/05/21 08:29:09;;;;;;;11.23;2.08;;;17.30;81.40;;;17.78;47.40;99420.38;4961875;28;20073;-84
2021/05/21 08:31:37;;;;;;;8.05;1.67;;;16.70;86.90;;;18.05;45.53;99425.03;4962650;28;20087;-84
2021/05/21 08:34:03;;;;;;;11.77;1.77;;;16.90;83.30;;;18.28;43.81;99417.22;4961274;29;20201;-83
2021/05/21 08:36:29;;;;;;;4.90;1.17;;;17.10;78.40;;;17.72;44.82;99424.94;4963562;29;20434;-84
2021/05/21 08:38:55;;;;;;;7.60;1.77;;;16.70;77.60;;;17.16;46.45;99417.59;4962310;28;20038;-84
2021/05/21 08:41:29;;;;;;;11.13;2.30;;;16.30;83.00;;;18.06;44.13;99423.81;4959372;29;20031;-83
2021/05/21 08:43:56;;;;;;;9.32;1.50;;;16.70;79.00;;;18.90;41.57;99401.16;4959793;29;20069;-84
2021/05/21 08:46:26;;;;;;;11.68;2.72;;;17.40;72.50;;;19.43;39.62;99409.00;4962112;28;20027;-83
2021/05/21 08:49:01;;;;;;;6.47;2.00;;;18.00;68.90;;;19.29;40.18;99405.75;4960333;28;20019;-85
2021/05/21 08:51:29;;;;;;;7.03;1.90;;;18.20;66.10;;;19.45;40.86;99423.53;4961129;28;20027;-86
2021/05/21 08:53:58;;;;;;;6.72;1.63;;;18.30;67.30;;;19.69;41.00;99404.19;4964366;28;20035;-84
2021/05/21 08:56:24;;;;;;;9.30;1.77;;;18.50;67.60;;;20.79;40.19;99400.72;4962651;29;20023;-82
2021/05/21 08:58:51;;;;;;;10.68;1.60;;;19.00;68.80;;;21.50;38.55;99399.00;4960000;28;20174;-82
2021/05/21 09:01:18;;;;;;;4.60;1.58;;;19.60;65.60;;;21.78;38.58;99399.97;4962732;28;20024;-84
2021/05/21 09:03:50;;;;;;;9.35;2.00;;;19.90;64.70;;;22.03;36.72;99402.69;4961756;28;20034;-83
2021/05/21 09:06:20;;;;;;;7.00;1.52;;;20.30;60.50;;;20.80;37.95;99403.13;4961065;28;20094;-83
2021/05/21 09:09:00;;;;;;;20.67;2.55;;;19.90;59.60;;;19.13;39.93;99400.94;4961823;28;20038;-82
2021/05/21 09:11:40;;;;;;;8.43;1.92;;;18.70;61.30;;;19.06;40.47;99406.00;4961453;28;20054;-84
2021/05/21 09:14:21;;;;;;;7.00;2.22;;;18.20;62.70;;;18.62;40.56;99407.56;4960530;29;20023;-85
2021/05/21 09:16:49;;;;;;;12.50;2.00;;;17.70;63.50;;;17.97;42.18;99435.72;4961441;28;20058;-81
2021/05/21 09:19:25;;;;;;;8.63;2.13;;;17.20;65.70;;;18.54;39.79;99425.91;4962704;28;20035;-82
2021/05/21 09:22:05;;;;;;;10.27;1.55;;;17.40;62.90;;;19.32;39.76;99425.47;4962588;29;20027;-83
2021/05/21 09:24:48;;;;;;;10.60;1.80;;;18.00;64.00;;;20.29;37.30;99418.59;4960538;28;20031;-81
2021/05/21 09:27:18;;;;;;;12.25;1.75;;;18.60;60.90;;;19.63;37.29;99430.69;4962407;29;20034;-82
2021/05/21 09:29:50;;;;;;;8.50;1.67;;;18.60;59.20;;;19.16;38.33;99424.72;4963112;28;20371;-84
2021/05/21 09:32:32;;;;;;;9.27;2.45;;;18.20;59.60;;;19.51;37.46;99425.78;4961111;28;20094;-83
2021/05/21 09:35:18;;;;;;;11.70;2.47;;;18.30;59.50;;;20.33;37.67;99433.44;4963088;28;20047;-83
2021/05/21 09:37:56;;;;;;;12.77;2.20;;;18.60;61.30;;;19.61;38.12;99421.88;4964554;28;20046;-84
2021/05/21 09:40:26;;;;;;;12.32;2.28;;;18.30;60.20;;;19.18;38.88;99425.84;4963787;28;20090;-82
2021/05/21 09:43:02;;;;;;;8.98;2.00;;;17.90;61.90;;;19.26;40.14;99418.78;4961599;29;20031;-83
2021/05/21 09:45:36;;;;;;;;;;;17.90;63.40;;;19.52;39.07;99447.22;4961436;28;20035;-83
2021/05/21 09:48:08;;;;;;;11.70;2.05;;;17.90;63.90;;;19.10;39.45;99426.50;4962526;29;19910;-84
2021/05/21 09:50:50;;;;;;;9.13;1.83;;;17.80;63.10;;;19.86;37.10;99436.88;4961342;28;20106;-82
2021/05/21 09:53:21;;;;;;;10.48;2.22;;;18.30;59.60;;;18.82;37.57;99436.50;4960324;28;20031;-83
2021/05/21 09:55:52;;;;;;;9.80;2.38;;;18.10;58.20;;;19.59;37.04;99435.66;4960403;29;20038;-82
2021/05/21 09:58:40;;;;;;;16.65;2.33;;;18.40;59.50;;;20.04;35.10;99418.53;4961328;28;20031;-82
2021/05/21 10:01:23;;;;;;;10.80;2.03;;;18.70;56.80;;;19.98;35.42;99438.13;4960843;29;20035;-85
2021/05/21 10:04:01;;;;;;;10.40;2.15;;;18.80;56.00;;;19.27;35.68;99430.88;4963084;29;20131;-83
2021/05/21 10:06:29;;;;;;;9.15;1.90;;;18.50;55.00;;;19.32;35.36;99436.81;4963173;29;20035;-83
2021/05/21 10:08:58;;;;;;;7.53;1.83;;;18.40;54.90;;;19.92;34.78;99435.09;4976371;28;20023;-80
2021/05/21 10:11:27;;;;;;;12.10;2.40;;;18.70;55.50;;;19.32;34.72;99427.50;4969410;28;20035;-83
2021/05/21 10:13:53;;;;;;;7.40;1.63;;;18.30;54.00;;;18.52;36.82;99434.06;4963128;29;20058;-83
2021/05/21 10:16:22;;;;;;;11.00;2.33;;;17.70;56.50;;;19.55;35.50;99426.50;4963778;28;20502;-84
2021/05/21 10:18:54;;;;;;;8.50;1.80;;;18.20;56.90;;;19.34;34.54;99431.47;4963859;28;20406;-86
2021/05/21 10:21:22;;;;;;;8.82;1.48;;;18.30;54.50;;;19.19;35.05;99435.16;4963372;29;20039;-82
2021/05/21 10:24:06;;;;;;;11.07;1.83;;;18.20;54.50;;;19.16;34.03;99436.84;4967212;28;20027;-85